sensor_id;sensor_type;location;lat;lon;timestamp;temperature;humidity
70300;HTU21D;57704;51.112;5.878;2023-02-28T00:01:14;2.75;60.98
70300;HTU21D;57704;51.112;5.878;2023-02-28T00:03:42;2.74;60.96
70300;HTU21D;57704;51.112;5.878;2023-02-28T00:06:08;2.74;61.02
70300;HTU21D;57704;51.112;5.878;2023-02-28T00:08:36;2.70;60.99
70300;HTU21D;57704;51.112;5.878;2023-02-28T00:11:05;2.66;61.13
70300;HTU21D;57704;51.112;5.878;2023-02-28T00:13:34;2.64;61.24
70300;HTU21D;57704;51.112;5.878;2023-02-28T00:16:04;2.65;61.18
70300;HTU21D;57704;51.112;5.878;2023-02-28T00:18:31;2.64;61.11
70300;HTU21D;57704;51.112;5.878;2023-02-28T00:20:58;2.61;61.12
70300;HTU21D;57704;51.112;5.878;2023-02-28T00:23:25;2.62;61.20
70300;HTU21D;57704;51.112;5.878;2023-02-28T00:25:53;2.59;61.30
70300;HTU21D;57704;51.112;5.878;2023-02-28T00:28:20;2.52;61.47
70300;HTU21D;57704;51.112;5.878;2023-02-28T00:30:46;2.47;61.73
70300;HTU21D;57704;51.112;5.878;2023-02-28T00:33:13;2.49;61.80
70300;HTU21D;57704;51.112;5.878;2023-02-28T00:35:40;2.46;61.96
70300;HTU21D;57704;51.112;5.878;2023-02-28T00:38:09;2.43;62.06
70300;HTU21D;57704;51.112;5.878;2023-02-28T00:40:35;2.44;62.08
70300;HTU21D;57704;51.112;5.878;2023-02-28T00:43:01;2.42;62.11
70300;HTU21D;57704;51.112;5.878;2023-02-28T00:45:28;2.39;62.15
70300;HTU21D;57704;51.112;5.878;2023-02-28T00:47:57;2.40;62.10
70300;HTU21D;57704;51.112;5.878;2023-02-28T00:50:24;2.39;62.14
70300;HTU21D;57704;51.112;5.878;2023-02-28T00:52:50;2.36;62.23
70300;HTU21D;57704;51.112;5.878;2023-02-28T00:55:17;2.32;62.29
70300;HTU21D;57704;51.112;5.878;2023-02-28T00:57:44;2.30;62.32
70300;HTU21D;57704;51.112;5.878;2023-02-28T01:00:12;2.31;62.27
70300;HTU21D;57704;51.112;5.878;2023-02-28T01:02:39;2.26;62.33
70300;HTU21D;57704;51.112;5.878;2023-02-28T01:05:09;2.21;62.52
70300;HTU21D;57704;51.112;5.878;2023-02-28T01:07:36;2.23;62.50
70300;HTU21D;57704;51.112;5.878;2023-02-28T01:10:03;2.22;62.47
70300;HTU21D;57704;51.112;5.878;2023-02-28T01:12:31;2.21;62.50
70300;HTU21D;57704;51.112;5.878;2023-02-28T01:15:01;2.22;62.55
70300;HTU21D;57704;51.112;5.878;2023-02-28T01:17:29;2.23;62.55
70300;HTU21D;57704;51.112;5.878;2023-02-28T01:20:03;2.21;62.46
70300;HTU21D;57704;51.112;5.878;2023-02-28T01:22:32;2.23;62.51
70300;HTU21D;57704;51.112;5.878;2023-02-28T01:24:59;2.22;62.49
70300;HTU21D;57704;51.112;5.878;2023-02-28T01:27:26;2.19;62.45
70300;HTU21D;57704;51.112;5.878;2023-02-28T01:29:54;2.13;62.50
70300;HTU21D;57704;51.112;5.878;2023-02-28T01:32:22;2.10;62.63
70300;HTU21D;57704;51.112;5.878;2023-02-28T01:34:50;2.08;62.79
70300;HTU21D;57704;51.112;5.878;2023-02-28T01:37:17;2.09;62.84
70300;HTU21D;57704;51.112;5.878;2023-02-28T01:39:44;2.08;62.89
70300;HTU21D;57704;51.112;5.878;2023-02-28T01:42:12;2.09;62.86
70300;HTU21D;57704;51.112;5.878;2023-02-28T01:47:38;2.00;62.92
70300;HTU21D;57704;51.112;5.878;2023-02-28T01:50:13;2.01;63.05
70300;HTU21D;57704;51.112;5.878;2023-02-28T01:52:43;2.02;63.11
70300;HTU21D;57704;51.112;5.878;2023-02-28T01:55:13;2.00;63.15
70300;HTU21D;57704;51.112;5.878;2023-02-28T01:57:56;2.00;63.15
70300;HTU21D;57704;51.112;5.878;2023-02-28T02:00:26;1.97;63.17
70300;HTU21D;57704;51.112;5.878;2023-02-28T02:02:58;1.94;63.26
70300;HTU21D;57704;51.112;5.878;2023-02-28T02:05:28;1.87;63.45
70300;HTU21D;57704;51.112;5.878;2023-02-28T02:08:03;1.83;63.61
70300;HTU21D;57704;51.112;5.878;2023-02-28T02:10:51;1.84;63.68
70300;HTU21D;57704;51.112;5.878;2023-02-28T02:13:38;1.85;63.68
70300;HTU21D;57704;51.112;5.878;2023-02-28T02:27:20;1.82;63.51
70300;HTU21D;57704;51.112;5.878;2023-02-28T02:35:56;1.75;63.63
70300;HTU21D;57704;51.112;5.878;2023-02-28T02:38:49;1.72;63.68
70300;HTU21D;57704;51.112;5.878;2023-02-28T02:46:50;1.68;63.75
70300;HTU21D;57704;51.112;5.878;2023-02-28T02:49:30;1.63;63.85
70300;HTU21D;57704;51.112;5.878;2023-02-28T02:52:03;1.63;64.01
70300;HTU21D;57704;51.112;5.878;2023-02-28T02:54:39;1.58;64.21
70300;HTU21D;57704;51.112;5.878;2023-02-28T02:57:21;1.56;64.30
70300;HTU21D;57704;51.112;5.878;2023-02-28T02:59:53;1.60;64.27
70300;HTU21D;57704;51.112;5.878;2023-02-28T03:02:23;1.58;64.34
70300;HTU21D;57704;51.112;5.878;2023-02-28T03:04:58;1.57;64.48
70300;HTU21D;57704;51.112;5.878;2023-02-28T03:07:28;1.54;64.50
70300;HTU21D;57704;51.112;5.878;2023-02-28T03:09:56;1.56;64.60
70300;HTU21D;57704;51.112;5.878;2023-02-28T03:12:35;1.52;64.72
70300;HTU21D;57704;51.112;5.878;2023-02-28T03:15:29;1.49;64.73
70300;HTU21D;57704;51.112;5.878;2023-02-28T03:18:16;1.50;64.70
70300;HTU21D;57704;51.112;5.878;2023-02-28T03:20:57;1.45;64.80
70300;HTU21D;57704;51.112;5.878;2023-02-28T03:23:43;1.41;64.97
70300;HTU21D;57704;51.112;5.878;2023-02-28T03:26:19;1.41;65.09
70300;HTU21D;57704;51.112;5.878;2023-02-28T03:32:11;1.41;65.28
70300;HTU21D;57704;51.112;5.878;2023-02-28T03:34:29;1.43;65.15
70300;HTU21D;57704;51.112;5.878;2023-02-28T03:37:04;1.46;65.06
70300;HTU21D;57704;51.112;5.878;2023-02-28T03:39:40;1.48;64.98
70300;HTU21D;57704;51.112;5.878;2023-02-28T03:42:20;1.49;64.96
70300;HTU21D;57704;51.112;5.878;2023-02-28T03:50:23;1.43;65.08
70300;HTU21D;57704;51.112;5.878;2023-02-28T03:53:33;1.37;65.17
70300;HTU21D;57704;51.112;5.878;2023-02-28T03:56:07;1.35;65.27
70300;HTU21D;57704;51.112;5.878;2023-02-28T04:01:25;1.36;65.25
70300;HTU21D;57704;51.112;5.878;2023-02-28T04:03:52;1.35;65.20
70300;HTU21D;57704;51.112;5.878;2023-02-28T04:06:21;1.33;65.17
70300;HTU21D;57704;51.112;5.878;2023-02-28T04:08:48;1.31;65.13
70300;HTU21D;57704;51.112;5.878;2023-02-28T04:11:27;1.29;65.21
70300;HTU21D;57704;51.112;5.878;2023-02-28T04:13:56;1.27;65.15
70300;HTU21D;57704;51.112;5.878;2023-02-28T04:16:23;1.27;65.17
70300;HTU21D;57704;51.112;5.878;2023-02-28T04:18:49;1.26;65.21
70300;HTU21D;57704;51.112;5.878;2023-02-28T04:21:16;1.26;65.17
70300;HTU21D;57704;51.112;5.878;2023-02-28T04:23:46;1.24;65.15
70300;HTU21D;57704;51.112;5.878;2023-02-28T04:26:13;1.23;65.18
70300;HTU21D;57704;51.112;5.878;2023-02-28T04:28:40;1.21;65.17
70300;HTU21D;57704;51.112;5.878;2023-02-28T04:31:06;1.14;65.32
70300;HTU21D;57704;51.112;5.878;2023-02-28T04:33:33;1.13;65.40
70300;HTU21D;57704;51.112;5.878;2023-02-28T04:36:06;1.11;65.40
70300;HTU21D;57704;51.112;5.878;2023-02-28T04:38:38;1.08;65.42
70300;HTU21D;57704;51.112;5.878;2023-02-28T04:41:05;1.08;65.37
70300;HTU21D;57704;51.112;5.878;2023-02-28T04:43:32;1.05;65.30
70300;HTU21D;57704;51.112;5.878;2023-02-28T04:46:02;1.04;65.32
70300;HTU21D;57704;51.112;5.878;2023-02-28T04:48:32;1.01;65.42
70300;HTU21D;57704;51.112;5.878;2023-02-28T04:51:03;0.97;65.45
70300;HTU21D;57704;51.112;5.878;2023-02-28T04:53:29;0.94;65.43
70300;HTU21D;57704;51.112;5.878;2023-02-28T04:55:56;0.90;65.55
70300;HTU21D;57704;51.112;5.878;2023-02-28T04:58:23;0.88;65.71
70300;HTU21D;57704;51.112;5.878;2023-02-28T05:00:53;0.84;65.84
70300;HTU21D;57704;51.112;5.878;2023-02-28T05:03:20;0.86;65.90
70300;HTU21D;57704;51.112;5.878;2023-02-28T05:05:48;0.86;65.80
70300;HTU21D;57704;51.112;5.878;2023-02-28T05:08:14;0.80;66.14
70300;HTU21D;57704;51.112;5.878;2023-02-28T05:10:40;0.80;66.33
70300;HTU21D;57704;51.112;5.878;2023-02-28T05:13:06;0.71;66.76
70300;HTU21D;57704;51.112;5.878;2023-02-28T05:15:32;0.71;66.94
70300;HTU21D;57704;51.112;5.878;2023-02-28T05:17:59;0.72;66.98
70300;HTU21D;57704;51.112;5.878;2023-02-28T05:20:25;0.74;66.97
70300;HTU21D;57704;51.112;5.878;2023-02-28T05:22:51;0.74;67.04
70300;HTU21D;57704;51.112;5.878;2023-02-28T05:25:20;0.75;67.14
70300;HTU21D;57704;51.112;5.878;2023-02-28T05:27:48;0.75;67.14
70300;HTU21D;57704;51.112;5.878;2023-02-28T05:30:15;0.76;67.10
70300;HTU21D;57704;51.112;5.878;2023-02-28T05:32:41;0.76;67.06
70300;HTU21D;57704;51.112;5.878;2023-02-28T05:35:11;0.79;66.88
70300;HTU21D;57704;51.112;5.878;2023-02-28T05:37:38;0.77;66.78
70300;HTU21D;57704;51.112;5.878;2023-02-28T05:40:06;0.74;66.85
70300;HTU21D;57704;51.112;5.878;2023-02-28T05:42:36;0.75;66.75
70300;HTU21D;57704;51.112;5.878;2023-02-28T05:45:03;0.75;66.64
70300;HTU21D;57704;51.112;5.878;2023-02-28T05:47:30;0.72;66.60
70300;HTU21D;57704;51.112;5.878;2023-02-28T05:49:56;0.69;66.59
70300;HTU21D;57704;51.112;5.878;2023-02-28T05:52:23;0.68;66.49
70300;HTU21D;57704;51.112;5.878;2023-02-28T05:54:50;0.66;66.46
70300;HTU21D;57704;51.112;5.878;2023-02-28T05:57:16;0.63;66.38
70300;HTU21D;57704;51.112;5.878;2023-02-28T05:59:43;0.57;66.47
70300;HTU21D;57704;51.112;5.878;2023-02-28T06:02:13;0.52;66.58
70300;HTU21D;57704;51.112;5.878;2023-02-28T06:04:39;0.50;66.65
70300;HTU21D;57704;51.112;5.878;2023-02-28T06:07:07;0.49;66.65
70300;HTU21D;57704;51.112;5.878;2023-02-28T06:09:34;0.45;66.69
70300;HTU21D;57704;51.112;5.878;2023-02-28T06:12:03;0.45;66.65
70300;HTU21D;57704;51.112;5.878;2023-02-28T06:14:33;0.47;66.60
70300;HTU21D;57704;51.112;5.878;2023-02-28T06:17:00;0.49;66.49
70300;HTU21D;57704;51.112;5.878;2023-02-28T06:19:27;0.50;66.45
70300;HTU21D;57704;51.112;5.878;2023-02-28T06:21:56;0.51;66.37
70300;HTU21D;57704;51.112;5.878;2023-02-28T06:24:24;0.55;66.30
70300;HTU21D;57704;51.112;5.878;2023-02-28T06:26:54;0.63;66.15
70300;HTU21D;57704;51.112;5.878;2023-02-28T06:29:22;0.62;65.98
70300;HTU21D;57704;51.112;5.878;2023-02-28T06:31:48;0.63;65.87
70300;HTU21D;57704;51.112;5.878;2023-02-28T06:34:15;0.66;65.67
70300;HTU21D;57704;51.112;5.878;2023-02-28T06:36:43;0.69;65.49
70300;HTU21D;57704;51.112;5.878;2023-02-28T06:39:09;0.67;65.37
70300;HTU21D;57704;51.112;5.878;2023-02-28T06:41:36;0.65;65.43
70300;HTU21D;57704;51.112;5.878;2023-02-28T06:44:15;0.65;65.60
70300;HTU21D;57704;51.112;5.878;2023-02-28T06:46:44;0.66;65.70
70300;HTU21D;57704;51.112;5.878;2023-02-28T06:49:12;0.69;65.72
70300;HTU21D;57704;51.112;5.878;2023-02-28T06:51:40;0.71;65.72
70300;HTU21D;57704;51.112;5.878;2023-02-28T06:54:08;0.75;65.69
70300;HTU21D;57704;51.112;5.878;2023-02-28T06:56:36;0.77;65.70
70300;HTU21D;57704;51.112;5.878;2023-02-28T06:59:04;0.82;65.77
70300;HTU21D;57704;51.112;5.878;2023-02-28T07:01:31;0.87;65.81
70300;HTU21D;57704;51.112;5.878;2023-02-28T07:03:59;1.01;68.23
70300;HTU21D;57704;51.112;5.878;2023-02-28T07:06:26;1.37;72.91
70300;HTU21D;57704;51.112;5.878;2023-02-28T07:08:54;2.22;73.95
70300;HTU21D;57704;51.112;5.878;2023-02-28T07:11:22;3.52;70.03
70300;HTU21D;57704;51.112;5.878;2023-02-28T07:13:50;4.75;65.66
70300;HTU21D;57704;51.112;5.878;2023-02-28T07:16:16;5.87;61.18
70300;HTU21D;57704;51.112;5.878;2023-02-28T07:18:43;6.81;57.23
70300;HTU21D;57704;51.112;5.878;2023-02-28T07:21:10;7.53;56.00
70300;HTU21D;57704;51.112;5.878;2023-02-28T07:23:38;8.57;53.24
70300;HTU21D;57704;51.112;5.878;2023-02-28T07:26:06;9.33;50.86
70300;HTU21D;57704;51.112;5.878;2023-02-28T07:28:34;9.99;48.66
70300;HTU21D;57704;51.112;5.878;2023-02-28T07:31:08;10.69;47.90
70300;HTU21D;57704;51.112;5.878;2023-02-28T07:33:35;11.39;45.32
70300;HTU21D;57704;51.112;5.878;2023-02-28T07:36:09;11.83;44.83
70300;HTU21D;57704;51.112;5.878;2023-02-28T07:38:41;12.40;42.17
70300;HTU21D;57704;51.112;5.878;2023-02-28T07:41:09;12.62;41.62
70300;HTU21D;57704;51.112;5.878;2023-02-28T07:43:36;12.99;41.16
70300;HTU21D;57704;51.112;5.878;2023-02-28T07:46:08;13.79;39.86
70300;HTU21D;57704;51.112;5.878;2023-02-28T07:48:35;14.21;37.46
70300;HTU21D;57704;51.112;5.878;2023-02-28T07:51:02;14.33;37.71
70300;HTU21D;57704;51.112;5.878;2023-02-28T07:53:29;14.87;37.04
70300;HTU21D;57704;51.112;5.878;2023-02-28T07:55:59;15.42;35.69
70300;HTU21D;57704;51.112;5.878;2023-02-28T07:58:28;16.11;34.47
70300;HTU21D;57704;51.112;5.878;2023-02-28T08:00:55;16.34;32.95
70300;HTU21D;57704;51.112;5.878;2023-02-28T08:03:23;16.59;32.53
70300;HTU21D;57704;51.112;5.878;2023-02-28T08:05:50;16.90;31.89
70300;HTU21D;57704;51.112;5.878;2023-02-28T08:08:16;17.26;31.44
70300;HTU21D;57704;51.112;5.878;2023-02-28T08:10:43;17.61;30.27
70300;HTU21D;57704;51.112;5.878;2023-02-28T08:13:09;17.81;29.30
70300;HTU21D;57704;51.112;5.878;2023-02-28T08:15:36;17.88;29.43
70300;HTU21D;57704;51.112;5.878;2023-02-28T08:18:02;18.22;29.43
70300;HTU21D;57704;51.112;5.878;2023-02-28T08:20:29;18.49;27.87
70300;HTU21D;57704;51.112;5.878;2023-02-28T08:22:55;18.38;27.97
70300;HTU21D;57704;51.112;5.878;2023-02-28T08:25:21;18.47;27.59
70300;HTU21D;57704;51.112;5.878;2023-02-28T08:27:50;18.64;27.78
70300;HTU21D;57704;51.112;5.878;2023-02-28T08:30:17;19.00;26.87
70300;HTU21D;57704;51.112;5.878;2023-02-28T08:32:44;18.82;25.64
70300;HTU21D;57704;51.112;5.878;2023-02-28T08:35:12;17.94;27.07
70300;HTU21D;57704;51.112;5.878;2023-02-28T08:37:39;17.66;27.32
70300;HTU21D;57704;51.112;5.878;2023-02-28T08:40:07;17.79;27.79
70300;HTU21D;57704;51.112;5.878;2023-02-28T08:42:36;18.20;26.46
70300;HTU21D;57704;51.112;5.878;2023-02-28T08:45:03;18.08;26.13
70300;HTU21D;57704;51.112;5.878;2023-02-28T08:47:30;17.93;26.06
70300;HTU21D;57704;51.112;5.878;2023-02-28T08:49:56;17.30;25.65
70300;HTU21D;57704;51.112;5.878;2023-02-28T08:52:23;16.93;26.12
70300;HTU21D;57704;51.112;5.878;2023-02-28T08:54:49;16.62;26.81
70300;HTU21D;57704;51.112;5.878;2023-02-28T08:57:16;16.69;26.66
70300;HTU21D;57704;51.112;5.878;2023-02-28T08:59:43;16.81;26.03
70300;HTU21D;57704;51.112;5.878;2023-02-28T09:02:13;16.76;26.44
70300;HTU21D;57704;51.112;5.878;2023-02-28T09:04:40;17.25;25.85
70300;HTU21D;57704;51.112;5.878;2023-02-28T09:07:07;17.14;24.72
70300;HTU21D;57704;51.112;5.878;2023-02-28T09:09:34;16.74;24.24
70300;HTU21D;57704;51.112;5.878;2023-02-28T09:12:00;16.42;25.05
70300;HTU21D;57704;51.112;5.878;2023-02-28T09:14:28;16.30;24.54
70300;HTU21D;57704;51.112;5.878;2023-02-28T09:16:55;15.77;24.26
70300;HTU21D;57704;51.112;5.878;2023-02-28T09:19:22;15.22;24.73
70300;HTU21D;57704;51.112;5.878;2023-02-28T09:21:49;15.06;24.90
70300;HTU21D;57704;51.112;5.878;2023-02-28T09:24:16;15.02;26.10
70300;HTU21D;57704;51.112;5.878;2023-02-28T09:26:42;15.21;24.91
70300;HTU21D;57704;51.112;5.878;2023-02-28T09:29:09;15.09;25.76
70300;HTU21D;57704;51.112;5.878;2023-02-28T09:31:37;15.57;24.17
70300;HTU21D;57704;51.112;5.878;2023-02-28T09:34:05;15.11;24.65
70300;HTU21D;57704;51.112;5.878;2023-02-28T09:36:31;14.88;24.13
70300;HTU21D;57704;51.112;5.878;2023-02-28T09:38:59;14.28;24.09
70300;HTU21D;57704;51.112;5.878;2023-02-28T09:41:27;13.70;25.23
70300;HTU21D;57704;51.112;5.878;2023-02-28T09:44:02;13.59;25.98
70300;HTU21D;57704;51.112;5.878;2023-02-28T09:46:38;13.56;25.04
70300;HTU21D;57704;51.112;5.878;2023-02-28T09:49:17;13.21;25.26
70300;HTU21D;57704;51.112;5.878;2023-02-28T09:51:58;13.04;25.93
70300;HTU21D;57704;51.112;5.878;2023-02-28T09:54:30;13.25;26.82
70300;HTU21D;57704;51.112;5.878;2023-02-28T10:00:15;13.60;24.09
70300;HTU21D;57704;51.112;5.878;2023-02-28T10:05:41;13.06;23.67
70300;HTU21D;57704;51.112;5.878;2023-02-28T10:08:22;12.34;24.44
70300;HTU21D;57704;51.112;5.878;2023-02-28T10:10:58;12.15;25.40
70300;HTU21D;57704;51.112;5.878;2023-02-28T10:19:30;11.92;25.77
70300;HTU21D;57704;51.112;5.878;2023-02-28T10:22:21;11.78;23.96
70300;HTU21D;57704;51.112;5.878;2023-02-28T10:24:52;11.14;25.93
70300;HTU21D;57704;51.112;5.878;2023-02-28T10:27:25;11.03;26.40
70300;HTU21D;57704;51.112;5.878;2023-02-28T10:29:55;10.86;26.81
70300;HTU21D;57704;51.112;5.878;2023-02-28T10:32:31;10.93;27.12
70300;HTU21D;57704;51.112;5.878;2023-02-28T10:35:15;11.27;26.64
70300;HTU21D;57704;51.112;5.878;2023-02-28T10:37:48;11.20;26.49
70300;HTU21D;57704;51.112;5.878;2023-02-28T10:43:19;10.52;26.23
70300;HTU21D;57704;51.112;5.878;2023-02-28T10:46:15;10.46;27.36
70300;HTU21D;57704;51.112;5.878;2023-02-28T10:49:05;10.93;27.30
70300;HTU21D;57704;51.112;5.878;2023-02-28T10:51:40;11.15;26.20
70300;HTU21D;57704;51.112;5.878;2023-02-28T10:54:31;10.99;26.02
70300;HTU21D;57704;51.112;5.878;2023-02-28T10:57:18;10.41;26.19
70300;HTU21D;57704;51.112;5.878;2023-02-28T10:59:46;10.12;26.90
70300;HTU21D;57704;51.112;5.878;2023-02-28T11:02:35;10.09;27.66
70300;HTU21D;57704;51.112;5.878;2023-02-28T11:05:02;10.19;27.30
70300;HTU21D;57704;51.112;5.878;2023-02-28T11:07:29;10.23;27.54
70300;HTU21D;57704;51.112;5.878;2023-02-28T11:09:57;10.24;26.50
70300;HTU21D;57704;51.112;5.878;2023-02-28T11:17:33;9.83;28.22
70300;HTU21D;57704;51.112;5.878;2023-02-28T11:20:06;9.80;28.12
70300;HTU21D;57704;51.112;5.878;2023-02-28T11:22:39;9.93;28.58
70300;HTU21D;57704;51.112;5.878;2023-02-28T11:25:22;10.11;28.58
70300;HTU21D;57704;51.112;5.878;2023-02-28T11:28:01;10.25;28.96
70300;HTU21D;57704;51.112;5.878;2023-02-28T11:30:37;10.43;28.22
70300;HTU21D;57704;51.112;5.878;2023-02-28T11:33:27;10.49;29.08
70300;HTU21D;57704;51.112;5.878;2023-02-28T11:36:00;10.85;27.52
70300;HTU21D;57704;51.112;5.878;2023-02-28T11:38:27;10.69;28.69
70300;HTU21D;57704;51.112;5.878;2023-02-28T12:03:25;12.27;26.53
70300;HTU21D;57704;51.112;5.878;2023-02-28T12:08:47;11.83;26.59
70300;HTU21D;57704;51.112;5.878;2023-02-28T12:19:57;12.73;26.01
70300;HTU21D;57704;51.112;5.878;2023-02-28T12:22:29;13.06;26.38
70300;HTU21D;57704;51.112;5.878;2023-02-28T12:25:58;13.74;26.27
70300;HTU21D;57704;51.112;5.878;2023-02-28T12:28:12;14.47;25.07
70300;HTU21D;57704;51.112;5.878;2023-02-28T12:31:08;14.64;23.97
70300;HTU21D;57704;51.112;5.878;2023-02-28T12:33:42;13.83;24.19
70300;HTU21D;57704;51.112;5.878;2023-02-28T12:36:13;12.77;25.57
70300;HTU21D;57704;51.112;5.878;2023-02-28T12:41:39;11.27;28.59
70300;HTU21D;57704;51.112;5.878;2023-02-28T12:44:16;11.37;28.29
70300;HTU21D;57704;51.112;5.878;2023-02-28T12:46:51;10.96;28.71
70300;HTU21D;57704;51.112;5.878;2023-02-28T12:49:33;11.09;28.85
70300;HTU21D;57704;51.112;5.878;2023-02-28T12:52:02;11.39;28.97
70300;HTU21D;57704;51.112;5.878;2023-02-28T12:55:29;11.93;28.90
70300;HTU21D;57704;51.112;5.878;2023-02-28T12:57:49;12.75;28.03
70300;HTU21D;57704;51.112;5.878;2023-02-28T13:00:20;13.25;27.12
70300;HTU21D;57704;51.112;5.878;2023-02-28T13:03:16;13.58;27.07
70300;HTU21D;57704;51.112;5.878;2023-02-28T13:09:10;14.21;25.66
70300;HTU21D;57704;51.112;5.878;2023-02-28T13:11:44;14.09;25.74
70300;HTU21D;57704;51.112;5.878;2023-02-28T13:14:22;14.09;25.72
70300;HTU21D;57704;51.112;5.878;2023-02-28T13:19:38;14.36;25.24
70300;HTU21D;57704;51.112;5.878;2023-02-28T13:22:18;14.54;24.74
70300;HTU21D;57704;51.112;5.878;2023-02-28T13:24:50;14.21;25.03
70300;HTU21D;57704;51.112;5.878;2023-02-28T13:27:20;14.09;24.78
70300;HTU21D;57704;51.112;5.878;2023-02-28T13:29:52;13.83;25.36
70300;HTU21D;57704;51.112;5.878;2023-02-28T13:32:29;13.60;24.54
70300;HTU21D;57704;51.112;5.878;2023-02-28T13:39:58;12.82;26.22
70300;HTU21D;57704;51.112;5.878;2023-02-28T13:42:36;12.66;26.12
70300;HTU21D;57704;51.112;5.878;2023-02-28T13:47:56;12.51;26.88
70300;HTU21D;57704;51.112;5.878;2023-02-28T13:50:43;12.42;26.51
70300;HTU21D;57704;51.112;5.878;2023-02-28T14:06:18;11.10;28.16
70300;HTU21D;57704;51.112;5.878;2023-02-28T14:11:32;10.63;29.42
70300;HTU21D;57704;51.112;5.878;2023-02-28T14:14:01;10.67;29.21
70300;HTU21D;57704;51.112;5.878;2023-02-28T14:19:18;10.70;29.74
70300;HTU21D;57704;51.112;5.878;2023-02-28T14:36:16;10.28;30.11
70300;HTU21D;57704;51.112;5.878;2023-02-28T14:38:57;10.24;30.03
70300;HTU21D;57704;51.112;5.878;2023-02-28T14:41:36;10.12;30.45
70300;HTU21D;57704;51.112;5.878;2023-02-28T14:44:25;10.20;31.18
70300;HTU21D;57704;51.112;5.878;2023-02-28T14:46:59;10.29;30.82
70300;HTU21D;57704;51.112;5.878;2023-02-28T14:49:36;10.26;30.83
70300;HTU21D;57704;51.112;5.878;2023-02-28T14:52:24;10.23;30.35
70300;HTU21D;57704;51.112;5.878;2023-02-28T14:54:56;9.96;30.90
70300;HTU21D;57704;51.112;5.878;2023-02-28T15:02:39;10.15;31.16
70300;HTU21D;57704;51.112;5.878;2023-02-28T15:07:36;9.94;31.41
70300;HTU21D;57704;51.112;5.878;2023-02-28T15:10:23;9.88;31.85
70300;HTU21D;57704;51.112;5.878;2023-02-28T15:12:59;9.81;32.12
70300;HTU21D;57704;51.112;5.878;2023-02-28T15:15:45;9.93;32.15
70300;HTU21D;57704;51.112;5.878;2023-02-28T15:20:50;9.71;32.06
70300;HTU21D;57704;51.112;5.878;2023-02-28T15:23:21;9.52;32.11
70300;HTU21D;57704;51.112;5.878;2023-02-28T15:25:51;9.35;32.64
70300;HTU21D;57704;51.112;5.878;2023-02-28T15:28:21;9.31;32.62
70300;HTU21D;57704;51.112;5.878;2023-02-28T15:31:34;9.22;32.80
70300;HTU21D;57704;51.112;5.878;2023-02-28T15:34:06;9.23;33.56
70300;HTU21D;57704;51.112;5.878;2023-02-28T15:36:34;9.31;33.33
70300;HTU21D;57704;51.112;5.878;2023-02-28T15:39:19;9.37;33.09
70300;HTU21D;57704;51.112;5.878;2023-02-28T15:41:46;9.33;33.20
70300;HTU21D;57704;51.112;5.878;2023-02-28T15:46:59;9.24;33.31
70300;HTU21D;57704;51.112;5.878;2023-02-28T15:49:29;9.29;33.29
70300;HTU21D;57704;51.112;5.878;2023-02-28T15:52:00;9.11;33.06
70300;HTU21D;57704;51.112;5.878;2023-02-28T15:54:33;8.94;33.53
70300;HTU21D;57704;51.112;5.878;2023-02-28T15:57:05;8.80;33.90
70300;HTU21D;57704;51.112;5.878;2023-02-28T15:59:36;8.70;34.18
70300;HTU21D;57704;51.112;5.878;2023-02-28T16:02:14;8.62;34.37
70300;HTU21D;57704;51.112;5.878;2023-02-28T16:05:16;8.62;34.59
70300;HTU21D;57704;51.112;5.878;2023-02-28T16:07:44;8.70;34.69
70300;HTU21D;57704;51.112;5.878;2023-02-28T16:10:12;8.75;34.74
70300;HTU21D;57704;51.112;5.878;2023-02-28T16:12:42;8.67;34.77
70300;HTU21D;57704;51.112;5.878;2023-02-28T16:15:19;8.66;34.88
70300;HTU21D;57704;51.112;5.878;2023-02-28T16:17:46;8.53;34.86
70300;HTU21D;57704;51.112;5.878;2023-02-28T16:20:26;8.37;35.25
70300;HTU21D;57704;51.112;5.878;2023-02-28T16:22:53;8.28;35.65
70300;HTU21D;57704;51.112;5.878;2023-02-28T16:25:42;8.23;35.79
70300;HTU21D;57704;51.112;5.878;2023-02-28T16:30:46;7.98;35.76
70300;HTU21D;57704;51.112;5.878;2023-02-28T16:33:12;7.79;36.00
70300;HTU21D;57704;51.112;5.878;2023-02-28T16:35:38;7.64;36.34
70300;HTU21D;57704;51.112;5.878;2023-02-28T16:38:05;7.58;36.53
70300;HTU21D;57704;51.112;5.878;2023-02-28T16:40:34;7.53;36.85
70300;HTU21D;57704;51.112;5.878;2023-02-28T16:43:14;7.56;37.19
70300;HTU21D;57704;51.112;5.878;2023-02-28T16:45:41;7.68;36.98
70300;HTU21D;57704;51.112;5.878;2023-02-28T16:48:14;7.61;37.21
70300;HTU21D;57704;51.112;5.878;2023-02-28T16:50:42;7.60;37.27
70300;HTU21D;57704;51.112;5.878;2023-02-28T16:53:12;7.59;37.54
70300;HTU21D;57704;51.112;5.878;2023-02-28T16:55:40;7.58;37.63
70300;HTU21D;57704;51.112;5.878;2023-02-28T16:58:06;7.48;37.92
70300;HTU21D;57704;51.112;5.878;2023-02-28T17:00:32;7.46;38.17
70300;HTU21D;57704;51.112;5.878;2023-02-28T17:02:59;7.42;38.34
70300;HTU21D;57704;51.112;5.878;2023-02-28T17:05:29;7.34;38.50
70300;HTU21D;57704;51.112;5.878;2023-02-28T17:07:59;7.22;38.92
70300;HTU21D;57704;51.112;5.878;2023-02-28T17:10:26;7.17;39.02
70300;HTU21D;57704;51.112;5.878;2023-02-28T17:12:52;7.09;39.29
70300;HTU21D;57704;51.112;5.878;2023-02-28T17:15:20;7.09;39.60
70300;HTU21D;57704;51.112;5.878;2023-02-28T17:17:48;7.08;39.68
70300;HTU21D;57704;51.112;5.878;2023-02-28T17:20:19;7.07;39.74
70300;HTU21D;57704;51.112;5.878;2023-02-28T17:22:49;7.00;39.98
70300;HTU21D;57704;51.112;5.878;2023-02-28T17:25:16;6.91;40.06
70300;HTU21D;57704;51.112;5.878;2023-02-28T17:27:43;6.85;40.26
70300;HTU21D;57704;51.112;5.878;2023-02-28T17:30:27;6.83;40.52
70300;HTU21D;57704;51.112;5.878;2023-02-28T17:32:54;6.80;40.59
70300;HTU21D;57704;51.112;5.878;2023-02-28T17:35:22;6.76;40.75
70300;HTU21D;57704;51.112;5.878;2023-02-28T17:37:49;6.72;40.87
70300;HTU21D;57704;51.112;5.878;2023-02-28T17:40:19;6.65;41.16
70300;HTU21D;57704;51.112;5.878;2023-02-28T17:42:46;6.54;41.42
70300;HTU21D;57704;51.112;5.878;2023-02-28T17:45:13;6.50;41.71
70300;HTU21D;57704;51.112;5.878;2023-02-28T17:47:43;6.41;41.90
70300;HTU21D;57704;51.112;5.878;2023-02-28T17:50:19;6.41;42.04
70300;HTU21D;57704;51.112;5.878;2023-02-28T17:52:48;6.37;42.18
70300;HTU21D;57704;51.112;5.878;2023-02-28T17:55:16;6.35;42.34
70300;HTU21D;57704;51.112;5.878;2023-02-28T17:57:44;6.30;42.50
70300;HTU21D;57704;51.112;5.878;2023-02-28T18:00:12;6.27;42.71
70300;HTU21D;57704;51.112;5.878;2023-02-28T18:02:42;6.20;42.81
70300;HTU21D;57704;51.112;5.878;2023-02-28T18:05:09;6.19;43.02
70300;HTU21D;57704;51.112;5.878;2023-02-28T18:07:37;6.17;43.15
70300;HTU21D;57704;51.112;5.878;2023-02-28T18:10:06;6.13;43.26
70300;HTU21D;57704;51.112;5.878;2023-02-28T18:12:33;6.11;43.45
70300;HTU21D;57704;51.112;5.878;2023-02-28T18:15:00;6.10;43.60
70300;HTU21D;57704;51.112;5.878;2023-02-28T18:17:28;6.10;43.71
70300;HTU21D;57704;51.112;5.878;2023-02-28T18:19:54;6.07;43.87
70300;HTU21D;57704;51.112;5.878;2023-02-28T18:22:20;6.05;44.11
70300;HTU21D;57704;51.112;5.878;2023-02-28T18:24:47;5.99;44.19
70300;HTU21D;57704;51.112;5.878;2023-02-28T18:27:13;5.93;44.33